Fort Wayne, IN

4:32 PM EST on March 03, 2015 (GMT -0500)
Hillegas Road, Ft.Wayne, IN | Change Station
CLOSE
Current Station
Personal Weather Station
Location: Fort Wayne, IN
Elevation: 823 ft
Nearby Weather Stations

Elev 823 ft 41.10 °N, 85.19 °W | Updated 7 minutes ago

Overcast
Overcast
37.6 °F
Feels Like 29 °F
N
15.5
Wind Variable Wind from South

Today
High -- | Low -- °F
--% Chance of Precip.
Yesterday
High -- | Low -- °F
Precip. -- in
7:12 AM 6:33 PM
Waxing Gibbous, 97% visible
Pressure 29.66 in
Visibility 2.5 miles
Clouds Overcast 500 ft
Windchill 29 °F
Dew Point 37 °F
Humidity 96%
Rainfall 0.39 in
Snow Depth Not available.
UV 1 out of 12
Pollen .40 out of 12
Air Quality Not available.
Flu Activity Not available.
SPECI KFWA 032059Z 24018KT 2 1/2SM -DZ BR OVC005 03/02 A2966 RMK AO2 DZB59 P0000 T00280017

More Conditions Fewer Conditions

Pressure 29.66 in
Visibility 2.5 miles
Clouds Overcast 500 ft
Windchill 29 °F
Dew Point 37 °F
Humidity 96%
Rainfall 0.39 in
Snow Depth Not available.
UV 1 out of 12
Pollen .40 out of 12
Air Quality Not available.
Flu Activity Not available.
SPECI KFWA 032059Z 24018KT 2 1/2SM -DZ BR OVC005 03/02 A2966 RMK AO2 DZB59 P0000 T00280017

More Conditions Fewer Conditions

10-Day Weather Forecast

Almanac

Astronomy

Mar. 03, 2015 Rise Set
Actual Time
Civil Twilight
Nautical Twilight
Astronomical Twilight
Moon
Length of Visible Light
Length of Day
Tomorrow will be .
, % of the Moon is Illuminated

Today's Extremes

State Highs State Lows

Community

WunderPhotos

Upload Photos

1,802,261 photos uploaded!

WunderBlogs® & News

Nearby

Air Quality

  Air Quality AQ Index Pollutant
Not available.

Snow Depth

Station Depth Elevation

Earthquake Activity

City Distance Mag. Time & Date
Minimum magnitude displayed is 2.5.

Coastal Water Temperatures

Place Temperature

Nearby Weather Stations